<?xml version="1.0" encoding="UTF-8"?>
<gpx version="1.1" creator="https://www.youtrack.es" xsi:schemaLocation="http://www.topografix.com/GPX/1/1 http://www.topografix.com/GPX/1/1/gpx.xsd http://www.garmin.com/xmlschemas/GpxExtensions/v3 http://www.garmin.com/xmlschemas/GpxExtensionsv3.xsd http://www.garmin.com/xmlschemas/TrackPointExtension/v1 http://www.garmin.com/xmlschemas/TrackPointExtensionv1.xsd" xmlns:gpxtpx="http://www.garmin.com/xmlschemas/TrackPointExtension/v1" xmlns:gpxx="http://www.garmin.com/xmlschemas/GpxExtensions/v3" xmlns:xsi="http://www.w3.org/2001/XMLSchema-instance">
  <metadata>
    <author>
      <name>Gustavo Moreno Domínguez</name>
      <email id="gustavomordom" domain="gmail.com"/>
    </author>
    <link href="https://www.youtrack.es">
      <text>YouTrack.es</text>
    </link>
    <time>2026-05-08T16:13:00Z</time>
  </metadata>
  <trk>
    <src>https://www.youtrack.es</src>
    <link href="https://www.youtrack.es/ruta/27469-danielnox">
      <text>YouTrack.es</text>
    </link>
    <trkseg>
      <trkpt lat="28.040560250104203" lon="-15.49372673003657">
        <ele>463.4551018759196</ele>
        <time>2021-11-20T07:48:56.000Z</time>
      </trkpt>
      <trkpt lat="28.040744227833667" lon="-15.493538967757786">
        <ele>462.74350001291026</ele>
        <time>2021-11-20T07:48:56.025Z</time>
      </trkpt>
      <trkpt lat="28.040872129111893" lon="-15.493565789796207">
        <ele>461.23007605611804</ele>
        <time>2021-11-20T07:48:56.063Z</time>
      </trkpt>
      <trkpt lat="28.040971607778744" lon="-15.493941298334676">
        <ele>459.86426498630266</ele>
        <time>2021-11-20T07:48:56.135Z</time>
      </trkpt>
      <trkpt lat="28.04115350259231" lon="-15.494334832545746">
        <ele>458.3823781882728</ele>
        <time>2021-11-20T07:48:56.247Z</time>
      </trkpt>
      <trkpt lat="28.041165210306644" lon="-15.494340704753995">
        <ele>456.4241421818729</ele>
        <time>2021-11-20T07:48:56.360Z</time>
      </trkpt>
      <trkpt lat="28.04124995134771" lon="-15.494449837133288">
        <ele>455.1579518893008</ele>
        <time>2021-11-20T07:48:56.486Z</time>
      </trkpt>
      <trkpt lat="28.04142102599144" lon="-15.494608171284199">
        <ele>453.39041318041313</ele>
        <time>2021-11-20T07:48:56.634Z</time>
      </trkpt>
      <trkpt lat="28.041521525010467" lon="-15.494676819071174">
        <ele>451.5252176641749</ele>
        <time>2021-11-20T07:48:56.794Z</time>
      </trkpt>
      <trkpt lat="28.041563434526324" lon="-15.494684195145965">
        <ele>449.84662217310574</ele>
        <time>2021-11-20T07:48:56.958Z</time>
      </trkpt>
      <trkpt lat="28.041606014594436" lon="-15.494670197367668">
        <ele>448.2580298092871</ele>
        <time>2021-11-20T07:48:57.126Z</time>
      </trkpt>
      <trkpt lat="28.041693437844515" lon="-15.494606997817755">
        <ele>446.74935749177337</ele>
        <time>2021-11-20T07:48:57.305Z</time>
      </trkpt>
      <trkpt lat="28.041779519990087" lon="-15.494416058063507">
        <ele>445.7438534237855</ele>
        <time>2021-11-20T07:48:57.503Z</time>
      </trkpt>
      <trkpt lat="28.041941123083234" lon="-15.494214724749327">
        <ele>444.0684028684251</ele>
        <time>2021-11-20T07:48:57.725Z</time>
      </trkpt>
      <trkpt lat="28.042167434468865" lon="-15.49402286298573">
        <ele>442.16274411211907</ele>
        <time>2021-11-20T07:48:57.975Z</time>
      </trkpt>
      <trkpt lat="28.042321660369996" lon="-15.493847204109215">
        <ele>440.8201637634042</ele>
        <time>2021-11-20T07:48:58.247Z</time>
      </trkpt>
      <trkpt lat="28.0424011915162" lon="-15.493664789052673">
        <ele>439.0426814996408</ele>
        <time>2021-11-20T07:48:58.537Z</time>
      </trkpt>
      <trkpt lat="28.042429613597797" lon="-15.493477034783496">
        <ele>439.1967472211628</ele>
        <time>2021-11-20T07:48:58.844Z</time>
      </trkpt>
      <trkpt lat="28.04235382136349" lon="-15.493294644921889">
        <ele>440.4666238875717</ele>
        <time>2021-11-20T07:48:59.168Z</time>
      </trkpt>
      <trkpt lat="28.042375296392265" lon="-15.49308056207763">
        <ele>441.0524685667773</ele>
        <time>2021-11-20T07:48:59.511Z</time>
      </trkpt>
      <trkpt lat="28.042472867862042" lon="-15.493002533499173">
        <ele>440.5034797035812</ele>
        <time>2021-11-20T07:48:59.866Z</time>
      </trkpt>
      <trkpt lat="28.042561886832118" lon="-15.492928018793464">
        <ele>438.97710180738534</ele>
        <time>2021-11-20T07:49:00.232Z</time>
      </trkpt>
      <trkpt lat="28.04260840639472" lon="-15.492914356291294">
        <ele>435.17896031298085</ele>
        <time>2021-11-20T07:49:00.603Z</time>
      </trkpt>
      <trkpt lat="28.042582841590047" lon="-15.492940340191126">
        <ele>433.62122452395477</ele>
        <time>2021-11-20T07:49:00.978Z</time>
      </trkpt>
      <trkpt lat="28.042633468285203" lon="-15.492901531979442">
        <ele>431.64942302354336</ele>
        <time>2021-11-20T07:49:01.359Z</time>
      </trkpt>
      <trkpt lat="28.04265676997602" lon="-15.49292198382318">
        <ele>429.5320829211722</ele>
        <time>2021-11-20T07:49:01.743Z</time>
      </trkpt>
      <trkpt lat="28.042618380859494" lon="-15.492995409294963">
        <ele>427.4797848646973</ele>
        <time>2021-11-20T07:49:02.134Z</time>
      </trkpt>
      <trkpt lat="28.042646124958992" lon="-15.493155587464571">
        <ele>424.9279032212439</ele>
        <time>2021-11-20T07:49:02.540Z</time>
      </trkpt>
      <trkpt lat="28.042632630094886" lon="-15.493308724835515">
        <ele>422.38745638391947</ele>
        <time>2021-11-20T07:49:02.959Z</time>
      </trkpt>
      <trkpt lat="28.042677473276854" lon="-15.493437303230166">
        <ele>419.4592663716553</ele>
        <time>2021-11-20T07:49:03.391Z</time>
      </trkpt>
      <trkpt lat="28.04268124513328" lon="-15.493605276569724">
        <ele>416.6010796386048</ele>
        <time>2021-11-20T07:49:03.837Z</time>
      </trkpt>
      <trkpt lat="28.042736314237118" lon="-15.493949772790074">
        <ele>412.9657163703865</ele>
        <time>2021-11-20T07:49:04.314Z</time>
      </trkpt>
      <trkpt lat="28.042681328952312" lon="-15.49409813247621">
        <ele>410.31958495249785</ele>
        <time>2021-11-20T07:49:04.806Z</time>
      </trkpt>
      <trkpt lat="28.042598012834787" lon="-15.49418748356402">
        <ele>408.04174406562413</ele>
        <time>2021-11-20T07:49:05.309Z</time>
      </trkpt>
      <trkpt lat="28.042644700035453" lon="-15.494230231270194">
        <ele>405.58098223634164</ele>
        <time>2021-11-20T07:49:05.818Z</time>
      </trkpt>
      <trkpt lat="28.042649729177356" lon="-15.494270296767354">
        <ele>403.4419842729827</ele>
        <time>2021-11-20T07:49:06.331Z</time>
      </trkpt>
      <trkpt lat="28.042547553777695" lon="-15.49445922486484">
        <ele>401.6076475011889</ele>
        <time>2021-11-20T07:49:06.863Z</time>
      </trkpt>
      <trkpt lat="28.042588457465172" lon="-15.494452184066176">
        <ele>399.83281602745285</ele>
        <time>2021-11-20T07:49:07.399Z</time>
      </trkpt>
      <trkpt lat="28.042622236534953" lon="-15.4944733902812">
        <ele>398.2306739603306</ele>
        <time>2021-11-20T07:49:07.939Z</time>
      </trkpt>
      <trkpt lat="28.042619721964" lon="-15.494561903178692">
        <ele>396.84276397878835</ele>
        <time>2021-11-20T07:49:08.487Z</time>
      </trkpt>
      <trkpt lat="28.042547218501568" lon="-15.494705652818084">
        <ele>395.75546231661565</ele>
        <time>2021-11-20T07:49:09.050Z</time>
      </trkpt>
      <trkpt lat="28.042501118034124" lon="-15.495025841519237">
        <ele>394.66814092219624</ele>
        <time>2021-11-20T07:49:09.641Z</time>
      </trkpt>
      <trkpt lat="28.04240665398538" lon="-15.495254080742598">
        <ele>393.8747388124069</ele>
        <time>2021-11-20T07:49:10.255Z</time>
      </trkpt>
      <trkpt lat="28.04237622767687" lon="-15.49553663469851">
        <ele>393.3335206329788</ele>
        <time>2021-11-20T07:49:10.894Z</time>
      </trkpt>
      <trkpt lat="28.042303724214435" lon="-15.49566512927413">
        <ele>392.929802859</ele>
        <time>2021-11-20T07:49:11.546Z</time>
      </trkpt>
      <trkpt lat="28.04228151217103" lon="-15.495742410421371">
        <ele>392.63473477875596</ele>
        <time>2021-11-20T07:49:12.206Z</time>
      </trkpt>
      <trkpt lat="28.042296431958675" lon="-15.495780128985643">
        <ele>392.42934259234335</ele>
        <time>2021-11-20T07:49:12.869Z</time>
      </trkpt>
      <trkpt lat="28.04242618381977" lon="-15.495938044041395">
        <ele>392.2559108155896</ele>
        <time>2021-11-20T07:49:13.551Z</time>
      </trkpt>
      <trkpt lat="28.04250195622444" lon="-15.49608338624239">
        <ele>392.21552547864314</ele>
        <time>2021-11-20T07:49:14.248Z</time>
      </trkpt>
      <trkpt lat="28.042502542957664" lon="-15.49626024439931">
        <ele>392.2967790191055</ele>
        <time>2021-11-20T07:49:14.961Z</time>
      </trkpt>
      <trkpt lat="28.04251939058304" lon="-15.496275164186954">
        <ele>392.28577798644403</ele>
        <time>2021-11-20T07:49:15.676Z</time>
      </trkpt>
      <trkpt lat="28.04256591014564" lon="-15.496262088418007">
        <ele>392.2361258166143</ele>
        <time>2021-11-20T07:49:16.396Z</time>
      </trkpt>
      <trkpt lat="28.042889451608062" lon="-15.495946342125535">
        <ele>392.1617843532198</ele>
        <time>2021-11-20T07:49:17.158Z</time>
      </trkpt>
      <trkpt lat="28.04319715127349" lon="-15.495749283581972">
        <ele>392.2147646169294</ele>
        <time>2021-11-20T07:49:17.956Z</time>
      </trkpt>
      <trkpt lat="28.04382453672588" lon="-15.495279729366302">
        <ele>391.79084420959987</ele>
        <time>2021-11-20T07:49:18.829Z</time>
      </trkpt>
      <trkpt lat="28.043865440413356" lon="-15.495221391320229">
        <ele>391.36769020342797</ele>
        <time>2021-11-20T07:49:19.708Z</time>
      </trkpt>
      <trkpt lat="28.043943056836724" lon="-15.495035899803042">
        <ele>390.67197825624794</ele>
        <time>2021-11-20T07:49:20.606Z</time>
      </trkpt>
      <trkpt lat="28.044125949963927" lon="-15.49485837109387">
        <ele>390.0914023645943</ele>
        <time>2021-11-20T07:49:21.528Z</time>
      </trkpt>
      <trkpt lat="28.04436852224171" lon="-15.494492249563336">
        <ele>389.2722327941916</ele>
        <time>2021-11-20T07:49:22.490Z</time>
      </trkpt>
      <trkpt lat="28.044542698189616" lon="-15.494099389761686">
        <ele>388.3713422856548</ele>
        <time>2021-11-20T07:49:23.491Z</time>
      </trkpt>
      <trkpt lat="28.044603634625673" lon="-15.493875425308943">
        <ele>387.49232184332743</ele>
        <time>2021-11-20T07:49:24.513Z</time>
      </trkpt>
      <trkpt lat="28.04462450556457" lon="-15.493717007339">
        <ele>386.5413387686805</ele>
        <time>2021-11-20T07:49:25.549Z</time>
      </trkpt>
      <trkpt lat="28.044507751191865" lon="-15.492829136950277">
        <ele>385.18025826764375</ele>
        <time>2021-11-20T07:49:26.664Z</time>
      </trkpt>
      <trkpt lat="28.044507913291454" lon="-15.492830369621515">
        <ele>383.4101755297903</ele>
        <time>2021-11-20T07:49:27.779Z</time>
      </trkpt>
      <trkpt lat="28.04430389776826" lon="-15.492251263931394">
        <ele>382.46428970441536</ele>
        <time>2021-11-20T07:49:28.949Z</time>
      </trkpt>
      <trkpt lat="28.044336587190628" lon="-15.491963597014546">
        <ele>381.5921572260247</ele>
        <time>2021-11-20T07:49:30.145Z</time>
      </trkpt>
      <trkpt lat="28.04436407983303" lon="-15.491854129359126">
        <ele>380.77820281450056</ele>
        <time>2021-11-20T07:49:31.351Z</time>
      </trkpt>
      <trkpt lat="28.044453347101808" lon="-15.4917018301785">
        <ele>379.9950829165264</ele>
        <time>2021-11-20T07:49:32.573Z</time>
      </trkpt>
      <trkpt lat="28.04454722441733" lon="-15.4914238024503">
        <ele>379.2594033316362</ele>
        <time>2021-11-20T07:49:33.822Z</time>
      </trkpt>
      <trkpt lat="28.044619224965572" lon="-15.491344593465328">
        <ele>378.40597293083135</ele>
        <time>2021-11-20T07:49:35.081Z</time>
      </trkpt>
      <trkpt lat="28.044759118929505" lon="-15.49128307029605">
        <ele>377.4404780978911</ele>
        <time>2021-11-20T07:49:36.355Z</time>
      </trkpt>
      <trkpt lat="28.04497285746038" lon="-15.491250129416585">
        <ele>376.48551122362653</ele>
        <time>2021-11-20T07:49:37.650Z</time>
      </trkpt>
      <trkpt lat="28.04523278027773" lon="-15.491122221574187">
        <ele>375.61854925454674</ele>
        <time>2021-11-20T07:49:38.973Z</time>
      </trkpt>
      <trkpt lat="28.045487673953176" lon="-15.491082239896059">
        <ele>374.800583267324</ele>
        <time>2021-11-20T07:49:40.322Z</time>
      </trkpt>
      <trkpt lat="28.04558616131544" lon="-15.491041671484709">
        <ele>374.09284881334423</ele>
        <time>2021-11-20T07:49:41.682Z</time>
      </trkpt>
      <trkpt lat="28.045652797445655" lon="-15.490943854674697">
        <ele>373.41704701679896</ele>
        <time>2021-11-20T07:49:43.053Z</time>
      </trkpt>
      <trkpt lat="28.04594666697085" lon="-15.4902633279562">
        <ele>372.7145347194595</ele>
        <time>2021-11-20T07:49:44.491Z</time>
      </trkpt>
      <trkpt lat="28.046114891767502" lon="-15.489930650219321">
        <ele>372.0143466285732</ele>
        <time>2021-11-20T07:49:45.962Z</time>
      </trkpt>
      <trkpt lat="28.046240704134107" lon="-15.489822691306472">
        <ele>371.36676573943043</ele>
        <time>2021-11-20T07:49:47.449Z</time>
      </trkpt>
      <trkpt lat="28.046544883400202" lon="-15.489742141216993">
        <ele>370.72004554567263</ele>
        <time>2021-11-20T07:49:48.967Z</time>
      </trkpt>
      <trkpt lat="28.046672539785504" lon="-15.48964818008244">
        <ele>369.9283505535602</ele>
        <time>2021-11-20T07:49:50.501Z</time>
      </trkpt>
      <trkpt lat="28.046714952215552" lon="-15.48958565108478">
        <ele>369.00475228860336</ele>
        <time>2021-11-20T07:49:52.041Z</time>
      </trkpt>
      <trkpt lat="28.04673439823091" lon="-15.4895138181746">
        <ele>367.98491326759154</ele>
        <time>2021-11-20T07:49:53.588Z</time>
      </trkpt>
      <trkpt lat="28.04673347622156" lon="-15.489436453208327">
        <ele>366.8904540097092</ele>
        <time>2021-11-20T07:49:55.142Z</time>
      </trkpt>
      <trkpt lat="28.046644292771816" lon="-15.488837901502848">
        <ele>365.3248612521645</ele>
        <time>2021-11-20T07:49:56.750Z</time>
      </trkpt>
      <trkpt lat="28.04664940573275" lon="-15.488035418093204">
        <ele>364.14050306478396</ele>
        <time>2021-11-20T07:49:58.429Z</time>
      </trkpt>
      <trkpt lat="28.046688716858625" lon="-15.487893847748637">
        <ele>362.96788970588364</ele>
        <time>2021-11-20T07:50:00.121Z</time>
      </trkpt>
      <trkpt lat="28.046895917505026" lon="-15.487595619633794">
        <ele>361.7468572003649</ele>
        <time>2021-11-20T07:50:01.846Z</time>
      </trkpt>
      <trkpt lat="28.046999098733068" lon="-15.487220278009772">
        <ele>360.53352461018846</ele>
        <time>2021-11-20T07:50:03.606Z</time>
      </trkpt>
      <trkpt lat="28.04716581478715" lon="-15.486852899193764">
        <ele>359.22012508573766</ele>
        <time>2021-11-20T07:50:05.403Z</time>
      </trkpt>
      <trkpt lat="28.047202695161104" lon="-15.486626252532005">
        <ele>357.892811769226</ele>
        <time>2021-11-20T07:50:07.220Z</time>
      </trkpt>
      <trkpt lat="28.04726648144424" lon="-15.486493315547705">
        <ele>356.60971652953026</ele>
        <time>2021-11-20T07:50:09.050Z</time>
      </trkpt>
      <trkpt lat="28.047537468373775" lon="-15.486260131001472">
        <ele>355.3360227024631</ele>
        <time>2021-11-20T07:50:10.914Z</time>
      </trkpt>
      <trkpt lat="28.047714913263917" lon="-15.4859306383878">
        <ele>354.00446133217486</ele>
        <time>2021-11-20T07:50:12.813Z</time>
      </trkpt>
      <trkpt lat="28.048068461939692" lon="-15.48562528565526">
        <ele>352.57526062237605</ele>
        <time>2021-11-20T07:50:14.756Z</time>
      </trkpt>
      <trkpt lat="28.04838739335537" lon="-15.485232090577483">
        <ele>350.98045846446655</ele>
        <time>2021-11-20T07:50:16.746Z</time>
      </trkpt>
      <trkpt lat="28.04868210107088" lon="-15.484909554943442">
        <ele>349.50796078723056</ele>
        <time>2021-11-20T07:50:18.777Z</time>
      </trkpt>
      <trkpt lat="28.04895577020943" lon="-15.484672598540783">
        <ele>348.092660722741</ele>
        <time>2021-11-20T07:50:20.842Z</time>
      </trkpt>
      <trkpt lat="28.049148553982377" lon="-15.484434552490711">
        <ele>346.63551556579625</ele>
        <time>2021-11-20T07:50:22.936Z</time>
      </trkpt>
      <trkpt lat="28.049418115988374" lon="-15.484171863645315">
        <ele>345.0939781141202</ele>
        <time>2021-11-20T07:50:25.066Z</time>
      </trkpt>
      <trkpt lat="28.0497776158154" lon="-15.483646905049682">
        <ele>343.5257410292254</ele>
        <time>2021-11-20T07:50:27.254Z</time>
      </trkpt>
      <trkpt lat="28.050576075911522" lon="-15.482727410271764">
        <ele>341.9727199436998</ele>
        <time>2021-11-20T07:50:29.556Z</time>
      </trkpt>
      <trkpt lat="28.05067950859666" lon="-15.482627246528864">
        <ele>340.77874294264905</ele>
        <time>2021-11-20T07:50:31.872Z</time>
      </trkpt>
      <trkpt lat="28.051062813028693" lon="-15.48237545415759">
        <ele>339.56589410639924</ele>
        <time>2021-11-20T07:50:34.232Z</time>
      </trkpt>
      <trkpt lat="28.051244532689452" lon="-15.482217706739902">
        <ele>338.4721799418465</ele>
        <time>2021-11-20T07:50:36.615Z</time>
      </trkpt>
      <trkpt lat="28.051444860175252" lon="-15.481957783922553">
        <ele>337.5282758461245</ele>
        <time>2021-11-20T07:50:39.028Z</time>
      </trkpt>
      <trkpt lat="28.05165776051581" lon="-15.481588058173656">
        <ele>336.76464148845514</ele>
        <time>2021-11-20T07:50:41.480Z</time>
      </trkpt>
      <trkpt lat="28.051848532631993" lon="-15.48131262883544">
        <ele>336.2297300009601</ele>
        <time>2021-11-20T07:50:43.963Z</time>
      </trkpt>
      <trkpt lat="28.05190745741129" lon="-15.481163933873177">
        <ele>335.8304838888432</ele>
        <time>2021-11-20T07:50:46.461Z</time>
      </trkpt>
      <trkpt lat="28.051954731345177" lon="-15.480843996629119">
        <ele>335.60039323118167</ele>
        <time>2021-11-20T07:50:48.987Z</time>
      </trkpt>
      <trkpt lat="28.052015583962202" lon="-15.480638556182384">
        <ele>335.3961200989702</ele>
        <time>2021-11-20T07:50:51.532Z</time>
      </trkpt>
      <trkpt lat="28.05202953902058" lon="-15.480533320212544">
        <ele>335.2071174501675</ele>
        <time>2021-11-20T07:50:54.087Z</time>
      </trkpt>
      <trkpt lat="28.052086522505814" lon="-15.48047806890736">
        <ele>334.7586361339309</ele>
        <time>2021-11-20T07:50:56.649Z</time>
      </trkpt>
      <trkpt lat="28.05226177610541" lon="-15.480437591923646">
        <ele>334.56186023879826</ele>
        <time>2021-11-20T07:50:59.229Z</time>
      </trkpt>
      <trkpt lat="28.052280722423397" lon="-15.480225941745857">
        <ele>334.5128346076341</ele>
        <time>2021-11-20T07:51:01.828Z</time>
      </trkpt>
      <trkpt lat="28.052342297933787" lon="-15.480147913908354">
        <ele>334.3029234740427</ele>
        <time>2021-11-20T07:51:04.436Z</time>
      </trkpt>
      <trkpt lat="28.052972260744934" lon="-15.479970888454432">
        <ele>333.8016283465188</ele>
        <time>2021-11-20T07:51:07.109Z</time>
      </trkpt>
      <trkpt lat="28.05311909365169" lon="-15.479847507077466">
        <ele>333.71522086615545</ele>
        <time>2021-11-20T07:51:09.800Z</time>
      </trkpt>
      <trkpt lat="28.053389076214998" lon="-15.4796168375467">
        <ele>333.51571291575374</ele>
        <time>2021-11-20T07:51:12.525Z</time>
      </trkpt>
      <trkpt lat="28.053616918785796" lon="-15.479291073077775">
        <ele>333.22404231442704</ele>
        <time>2021-11-20T07:51:15.287Z</time>
      </trkpt>
      <trkpt lat="28.053754277784247" lon="-15.479323259523994">
        <ele>334.59169788557733</ele>
        <time>2021-11-20T07:51:18.063Z</time>
      </trkpt>
      <trkpt lat="28.05389878338164" lon="-15.479281327679642">
        <ele>335.8624047571502</ele>
        <time>2021-11-20T07:51:20.854Z</time>
      </trkpt>
      <trkpt lat="28.0538195161083" lon="-15.479260845714938">
        <ele>334.76672021409547</ele>
        <time>2021-11-20T08:00:02.000Z</time>
      </trkpt>
      <trkpt lat="28.053632308348206" lon="-15.479211095031587">
        <ele>334.29667534714685</ele>
        <time>2021-11-20T08:00:02.015Z</time>
      </trkpt>
      <trkpt lat="28.05362185725577" lon="-15.479013456002122">
        <ele>334.5501398434599</ele>
        <time>2021-11-20T08:00:02.044Z</time>
      </trkpt>
      <trkpt lat="28.053621305152774" lon="-15.479010622948408">
        <ele>335.1658567044539</ele>
        <time>2021-11-20T08:00:02.074Z</time>
      </trkpt>
      <trkpt lat="28.05353069677949" lon="-15.478844996541739">
        <ele>335.8485976000361</ele>
        <time>2021-11-20T08:00:02.117Z</time>
      </trkpt>
      <trkpt lat="28.053372194990516" lon="-15.478803841397166">
        <ele>336.60740706241995</ele>
        <time>2021-11-20T08:00:02.173Z</time>
      </trkpt>
      <trkpt lat="28.05330304428935" lon="-15.478826304897666">
        <ele>337.1646097516756</ele>
        <time>2021-11-20T08:00:02.235Z</time>
      </trkpt>
      <trkpt lat="28.053227188065648" lon="-15.478817755356431">
        <ele>337.6286475438408</ele>
        <time>2021-11-20T08:00:02.303Z</time>
      </trkpt>
      <trkpt lat="28.053230792284012" lon="-15.478835692629218">
        <ele>337.9388803629621</ele>
        <time>2021-11-20T08:00:02.372Z</time>
      </trkpt>
      <trkpt lat="28.05316868238151" lon="-15.478798057883978">
        <ele>338.1599344111644</ele>
        <time>2021-11-20T08:00:02.447Z</time>
      </trkpt>
      <trkpt lat="28.053112691268325" lon="-15.47878741286695">
        <ele>338.2925180615574</ele>
        <time>2021-11-20T08:00:02.527Z</time>
      </trkpt>
      <trkpt lat="28.053072541952133" lon="-15.478722117841244">
        <ele>338.3953216848753</ele>
        <time>2021-11-20T08:00:02.612Z</time>
      </trkpt>
      <trkpt lat="28.052983777597547" lon="-15.478675430640578">
        <ele>338.3987695731871</ele>
        <time>2021-11-20T08:00:02.705Z</time>
      </trkpt>
      <trkpt lat="28.052940275520086" lon="-15.478663947433233">
        <ele>338.41505525683533</ele>
        <time>2021-11-20T08:00:02.802Z</time>
      </trkpt>
      <trkpt lat="28.052840027958155" lon="-15.478674592450261">
        <ele>338.47856357837486</ele>
        <time>2021-11-20T08:00:02.907Z</time>
      </trkpt>
      <trkpt lat="28.0527547840029" lon="-15.478652631863952">
        <ele>338.6192785532546</ele>
        <time>2021-11-20T08:00:03.019Z</time>
      </trkpt>
      <trkpt lat="28.05274204351008" lon="-15.478666629642248">
        <ele>338.77348607647735</ele>
        <time>2021-11-20T08:00:03.132Z</time>
      </trkpt>
      <trkpt lat="28.05275771766901" lon="-15.478664953261614">
        <ele>338.9697117400857</ele>
        <time>2021-11-20T08:00:03.246Z</time>
      </trkpt>
      <trkpt lat="28.052699463441968" lon="-15.478702252730727">
        <ele>339.2281788007602</ele>
        <time>2021-11-20T08:00:03.366Z</time>
      </trkpt>
      <trkpt lat="28.052573734894395" lon="-15.47872873954475">
        <ele>339.5692806875062</ele>
        <time>2021-11-20T08:00:03.496Z</time>
      </trkpt>
      <trkpt lat="28.05251581594348" lon="-15.47871608287096">
        <ele>339.97816674487257</ele>
        <time>2021-11-20T08:00:03.631Z</time>
      </trkpt>
      <trkpt lat="28.052471978589892" lon="-15.478759668767452">
        <ele>340.39841312552113</ele>
        <time>2021-11-20T08:00:03.770Z</time>
      </trkpt>
      <trkpt lat="28.052416741847992" lon="-15.478726057335734">
        <ele>340.94984327251376</ele>
        <time>2021-11-20T08:00:03.914Z</time>
      </trkpt>
      <trkpt lat="28.05227885954082" lon="-15.478732762858272">
        <ele>341.5624220903529</ele>
        <time>2021-11-20T08:00:04.069Z</time>
      </trkpt>
      <trkpt lat="28.052214151248336" lon="-15.478768888860941">
        <ele>342.1207075016664</ele>
        <time>2021-11-20T08:00:04.230Z</time>
      </trkpt>
      <trkpt lat="28.05215187370777" lon="-15.478781377896667">
        <ele>342.7411547221059</ele>
        <time>2021-11-20T08:00:04.396Z</time>
      </trkpt>
      <trkpt lat="28.052123123779893" lon="-15.478756902739406">
        <ele>343.3895763871879</ele>
        <time>2021-11-20T08:00:04.565Z</time>
      </trkpt>
      <trkpt lat="28.05201114155352" lon="-15.478757321834564">
        <ele>344.0792786882487</ele>
        <time>2021-11-20T08:00:04.743Z</time>
      </trkpt>
      <trkpt lat="28.05179798975587" lon="-15.478810546919703">
        <ele>344.7833425856692</ele>
        <time>2021-11-20T08:00:04.938Z</time>
      </trkpt>
      <trkpt lat="28.05174426175654" lon="-15.47885145060718">
        <ele>345.3592310481573</ele>
        <time>2021-11-20T08:00:05.138Z</time>
      </trkpt>
      <trkpt lat="28.051717607304454" lon="-15.478857150301337">
        <ele>345.9036857470628</ele>
        <time>2021-11-20T08:00:05.341Z</time>
      </trkpt>
      <trkpt lat="28.051699167117476" lon="-15.478842817246914">
        <ele>346.4200455068366</ele>
        <time>2021-11-20T08:00:05.545Z</time>
      </trkpt>
      <trkpt lat="28.051648791879416" lon="-15.478888414800167">
        <ele>346.85078374256295</ele>
        <time>2021-11-20T08:00:05.755Z</time>
      </trkpt>
      <trkpt lat="28.051638649776578" lon="-15.478911129757762">
        <ele>347.2165382247201</ele>
        <time>2021-11-20T08:00:05.966Z</time>
      </trkpt>
      <trkpt lat="28.051648875698447" lon="-15.47891205176711">
        <ele>347.51020244581196</ele>
        <time>2021-11-20T08:00:06.178Z</time>
      </trkpt>
      <trkpt lat="28.051404794678092" lon="-15.479022525250912">
        <ele>348.11022454035646</ele>
        <time>2021-11-20T08:00:06.411Z</time>
      </trkpt>
      <trkpt lat="28.05148148909211" lon="-15.479063596576452">
        <ele>348.19466969746446</ele>
        <time>2021-11-20T08:00:06.651Z</time>
      </trkpt>
      <trkpt lat="28.0513802357018" lon="-15.479137692600489">
        <ele>348.50320463204184</ele>
        <time>2021-11-20T08:00:06.901Z</time>
      </trkpt>
      <trkpt lat="28.05143346078694" lon="-15.479160826653242">
        <ele>348.5366597811694</ele>
        <time>2021-11-20T08:00:07.155Z</time>
      </trkpt>
      <trkpt lat="28.051367914304137" lon="-15.479196030646563">
        <ele>348.69098168138</ele>
        <time>2021-11-20T08:00:07.415Z</time>
      </trkpt>
      <trkpt lat="28.051290716975927" lon="-15.479307845234871">
        <ele>348.733479633722</ele>
        <time>2021-11-20T08:00:07.685Z</time>
      </trkpt>
      <trkpt lat="28.051236905157566" lon="-15.479396190494299">
        <ele>348.72636598273937</ele>
        <time>2021-11-20T08:00:07.963Z</time>
      </trkpt>
      <trkpt lat="28.051211340352893" lon="-15.479499287903309">
        <ele>348.6624325613576</ele>
        <time>2021-11-20T08:00:08.248Z</time>
      </trkpt>
      <trkpt lat="28.050980418920517" lon="-15.479833306744695">
        <ele>348.65051628379024</ele>
        <time>2021-11-20T08:00:08.563Z</time>
      </trkpt>
      <trkpt lat="28.050997350364923" lon="-15.479863565415144">
        <ele>348.7130927762997</ele>
        <time>2021-11-20T08:00:08.881Z</time>
      </trkpt>
      <trkpt lat="28.051003636792302" lon="-15.479840179905295">
        <ele>348.8166417893989</ele>
        <time>2021-11-20T08:00:09.200Z</time>
      </trkpt>
      <trkpt lat="28.050987627357244" lon="-15.479820733889937">
        <ele>348.9786687744511</ele>
        <time>2021-11-20T08:00:09.521Z</time>
      </trkpt>
      <trkpt lat="28.050939850509167" lon="-15.479897344484925">
        <ele>349.18362182628954</ele>
        <time>2021-11-20T08:00:09.849Z</time>
      </trkpt>
      <trkpt lat="28.050759891048074" lon="-15.480090966448188">
        <ele>349.5213800251568</ele>
        <time>2021-11-20T08:00:10.197Z</time>
      </trkpt>
      <trkpt lat="28.05071177892387" lon="-15.480097588151693">
        <ele>349.839465497845</ele>
        <time>2021-11-20T08:00:10.549Z</time>
      </trkpt>
      <trkpt lat="28.050597701221704" lon="-15.480170426890254">
        <ele>350.3202368633903</ele>
        <time>2021-11-20T08:00:10.911Z</time>
      </trkpt>
      <trkpt lat="28.050490831956267" lon="-15.48021174967289">
        <ele>350.8183339048511</ele>
        <time>2021-11-20T08:00:11.282Z</time>
      </trkpt>
      <trkpt lat="28.050308944657445" lon="-15.48017461784184">
        <ele>351.32642174743313</ele>
        <time>2021-11-20T08:00:11.668Z</time>
      </trkpt>
      <trkpt lat="28.050227388739586" lon="-15.480177802965045">
        <ele>351.8402612233658</ele>
        <time>2021-11-20T08:00:12.060Z</time>
      </trkpt>
      <trkpt lat="28.050199141725898" lon="-15.480137821286917">
        <ele>352.31471567499597</ele>
        <time>2021-11-20T08:00:12.456Z</time>
      </trkpt>
      <trkpt lat="28.050131667405367" lon="-15.48010915517807">
        <ele>352.82358006328144</ele>
        <time>2021-11-20T08:00:12.858Z</time>
      </trkpt>
      <trkpt lat="28.049997054040432" lon="-15.479923244565725">
        <ele>353.40304038112777</ele>
        <time>2021-11-20T08:00:13.277Z</time>
      </trkpt>
      <trkpt lat="28.04990317672491" lon="-15.479898434132338">
        <ele>353.93287967476704</ele>
        <time>2021-11-20T08:00:13.703Z</time>
      </trkpt>
      <trkpt lat="28.049864871427417" lon="-15.479826182126999">
        <ele>354.46711617781557</ele>
        <time>2021-11-20T08:00:14.135Z</time>
      </trkpt>
      <trkpt lat="28.049764707684517" lon="-15.479709757491946">
        <ele>354.9919059788328</ele>
        <time>2021-11-20T08:00:14.579Z</time>
      </trkpt>
      <trkpt lat="28.04967502132058" lon="-15.479689054191113">
        <ele>355.4125559045651</ele>
        <time>2021-11-20T08:00:15.030Z</time>
      </trkpt>
      <trkpt lat="28.04958558641374" lon="-15.479706823825836">
        <ele>355.7110631486618</ele>
        <time>2021-11-20T08:00:15.488Z</time>
      </trkpt>
      <trkpt lat="28.049504701048136" lon="-15.479769604280591">
        <ele>355.97542062579294</ele>
        <time>2021-11-20T08:00:15.954Z</time>
      </trkpt>
      <trkpt lat="28.049480309709907" lon="-15.479759378358722">
        <ele>356.28915027696394</ele>
        <time>2021-11-20T08:00:16.422Z</time>
      </trkpt>
      <trkpt lat="28.049429766833782" lon="-15.47977639362216">
        <ele>356.5650597049104</ele>
        <time>2021-11-20T08:00:16.894Z</time>
      </trkpt>
      <trkpt lat="28.049365477636456" lon="-15.479880245402455">
        <ele>356.76114217034234</ele>
        <time>2021-11-20T08:00:17.375Z</time>
      </trkpt>
      <trkpt lat="28.04921560920775" lon="-15.479922322556376">
        <ele>356.9742321995676</ele>
        <time>2021-11-20T08:00:17.869Z</time>
      </trkpt>
      <trkpt lat="28.049041852355003" lon="-15.48002902418375">
        <ele>357.184734267197</ele>
        <time>2021-11-20T08:00:18.379Z</time>
      </trkpt>
      <trkpt lat="28.048798944801092" lon="-15.480077220126987">
        <ele>357.8190794747644</ele>
        <time>2021-11-20T08:00:18.908Z</time>
      </trkpt>
      <trkpt lat="28.048791652545333" lon="-15.480102868750691">
        <ele>358.1312623684569</ele>
        <time>2021-11-20T08:00:19.439Z</time>
      </trkpt>
      <trkpt lat="28.04875284433365" lon="-15.480090295895934">
        <ele>358.4848038585776</ele>
        <time>2021-11-20T08:00:19.973Z</time>
      </trkpt>
      <trkpt lat="28.048682352527976" lon="-15.480159781873226">
        <ele>358.82872214008546</ele>
        <time>2021-11-20T08:00:20.515Z</time>
      </trkpt>
      <trkpt lat="28.048660811036825" lon="-15.480161374434829">
        <ele>359.1496236429743</ele>
        <time>2021-11-20T08:00:21.059Z</time>
      </trkpt>
      <trkpt lat="28.048603143543005" lon="-15.480236476287246">
        <ele>359.4925493304878</ele>
        <time>2021-11-20T08:00:21.610Z</time>
      </trkpt>
      <trkpt lat="28.048561485484242" lon="-15.480237314477563">
        <ele>359.8315259564455</ele>
        <time>2021-11-20T08:00:22.164Z</time>
      </trkpt>
      <trkpt lat="28.048362331464887" lon="-15.480482149869204">
        <ele>360.28473050342365</ele>
        <time>2021-11-20T08:00:22.741Z</time>
      </trkpt>
      <trkpt lat="28.04814163595438" lon="-15.480538476258516">
        <ele>360.46933813015585</ele>
        <time>2021-11-20T08:00:23.336Z</time>
      </trkpt>
      <trkpt lat="28.04811967536807" lon="-15.480518275871873">
        <ele>360.7845586018222</ele>
        <time>2021-11-20T08:00:23.934Z</time>
      </trkpt>
      <trkpt lat="28.048112969845533" lon="-15.480533530935645">
        <ele>361.1354332644273</ele>
        <time>2021-11-20T08:00:24.533Z</time>
      </trkpt>
      <trkpt lat="28.048044741153717" lon="-15.480535542592406">
        <ele>361.45199630546756</ele>
        <time>2021-11-20T08:00:25.137Z</time>
      </trkpt>
      <trkpt lat="28.047959664836526" lon="-15.480586588382721">
        <ele>361.8059854827238</ele>
        <time>2021-11-20T08:00:25.749Z</time>
      </trkpt>
      <trkpt lat="28.047953210771084" lon="-15.480645010247827">
        <ele>362.2543515625671</ele>
        <time>2021-11-20T08:00:26.365Z</time>
      </trkpt>
      <trkpt lat="28.04786453023553" lon="-15.480688428506255">
        <ele>362.6950245962332</ele>
        <time>2021-11-20T08:00:26.989Z</time>
      </trkpt>
      <trkpt lat="28.047752548009157" lon="-15.48078591004014">
        <ele>363.20699335690284</ele>
        <time>2021-11-20T08:00:27.624Z</time>
      </trkpt>
      <trkpt lat="28.04768322966993" lon="-15.480918176472187">
        <ele>363.77224720584013</ele>
        <time>2021-11-20T08:00:28.270Z</time>
      </trkpt>
      <trkpt lat="28.047571247443557" lon="-15.481067961081862">
        <ele>364.336799374052</ele>
        <time>2021-11-20T08:00:28.930Z</time>
      </trkpt>
      <trkpt lat="28.047493379563093" lon="-15.481222691014409">
        <ele>364.88515928311193</ele>
        <time>2021-11-20T08:00:29.603Z</time>
      </trkpt>
      <trkpt lat="28.04749564267695" lon="-15.48129016533494">
        <ele>365.3429580882738</ele>
        <time>2021-11-20T08:00:30.280Z</time>
      </trkpt>
      <trkpt lat="28.04745616391301" lon="-15.481332745403051">
        <ele>365.704883544591</ele>
        <time>2021-11-20T08:00:30.962Z</time>
      </trkpt>
      <trkpt lat="28.047424228861928" lon="-15.481434501707554">
        <ele>366.09728388066867</ele>
        <time>2021-11-20T08:00:31.651Z</time>
      </trkpt>
      <trkpt lat="28.04742967709899" lon="-15.481494767591357">
        <ele>366.3922157972153</ele>
        <time>2021-11-20T08:00:32.345Z</time>
      </trkpt>
      <trkpt lat="28.04737837985158" lon="-15.481565175577998">
        <ele>366.59367130062253</ele>
        <time>2021-11-20T08:00:33.045Z</time>
      </trkpt>
      <trkpt lat="28.04720596410334" lon="-15.481589902192354">
        <ele>366.4944794196281</ele>
        <time>2021-11-20T08:00:33.759Z</time>
      </trkpt>
      <trkpt lat="28.0471199657768" lon="-15.481574814766645">
        <ele>366.4183562959168</ele>
        <time>2021-11-20T08:00:34.480Z</time>
      </trkpt>
      <trkpt lat="28.04706271737814" lon="-15.481544556096196">
        <ele>366.3284764149875</ele>
        <time>2021-11-20T08:00:35.206Z</time>
      </trkpt>
      <trkpt lat="28.046882255002856" lon="-15.481536677107215">
        <ele>366.14233260509957</ele>
        <time>2021-11-20T08:00:35.946Z</time>
      </trkpt>
      <trkpt lat="28.046756023541093" lon="-15.481499461457133">
        <ele>366.0414896256988</ele>
        <time>2021-11-20T08:00:36.697Z</time>
      </trkpt>
      <trkpt lat="28.046581260859966" lon="-15.481510777026415">
        <ele>366.0865609889796</ele>
        <time>2021-11-20T08:00:37.462Z</time>
      </trkpt>
      <trkpt lat="28.046477492898703" lon="-15.481623848900199">
        <ele>366.0733323524571</ele>
        <time>2021-11-20T08:00:38.238Z</time>
      </trkpt>
      <trkpt lat="28.046367103233933" lon="-15.481880502775311">
        <ele>366.07437785276693</ele>
        <time>2021-11-20T08:00:39.034Z</time>
      </trkpt>
      <trkpt lat="28.04633961059153" lon="-15.481992065906525">
        <ele>366.15984876297784</ele>
        <time>2021-11-20T08:00:39.839Z</time>
      </trkpt>
      <trkpt lat="28.046296946704388" lon="-15.482070604339242">
        <ele>366.2772922303142</ele>
        <time>2021-11-20T08:00:40.650Z</time>
      </trkpt>
      <trkpt lat="28.046226873993874" lon="-15.482114860787988">
        <ele>366.35115336072454</ele>
        <time>2021-11-20T08:00:41.468Z</time>
      </trkpt>
      <trkpt lat="28.046170799061656" lon="-15.482194907963276">
        <ele>366.46513661319216</ele>
        <time>2021-11-20T08:00:42.293Z</time>
      </trkpt>
      <trkpt lat="28.04599955677986" lon="-15.482299346476793">
        <ele>366.5542155092082</ele>
        <time>2021-11-20T08:00:43.133Z</time>
      </trkpt>
      <trkpt lat="28.04597608745098" lon="-15.482324827462435">
        <ele>366.68315185095844</ele>
        <time>2021-11-20T08:00:43.976Z</time>
      </trkpt>
      <trkpt lat="28.04598572663963" lon="-15.482313763350248">
        <ele>366.79746277462027</ele>
        <time>2021-11-20T08:00:44.820Z</time>
      </trkpt>
      <trkpt lat="28.04600047878921" lon="-15.482323989272118">
        <ele>366.9627873934551</ele>
        <time>2021-11-20T08:00:45.665Z</time>
      </trkpt>
      <trkpt lat="28.04596183821559" lon="-15.482347877696157">
        <ele>367.12998677608414</ele>
        <time>2021-11-20T08:00:46.514Z</time>
      </trkpt>
      <trkpt lat="28.045952869579196" lon="-15.482388027012348">
        <ele>367.3453594243092</ele>
        <time>2021-11-20T08:00:47.366Z</time>
      </trkpt>
      <trkpt lat="28.045918252319098" lon="-15.482417028397322">
        <ele>367.5490922929315</ele>
        <time>2021-11-20T08:00:48.221Z</time>
      </trkpt>
      <trkpt lat="28.045894782990217" lon="-15.48240520991385">
        <ele>367.710446454235</ele>
        <time>2021-11-20T08:00:49.078Z</time>
      </trkpt>
      <trkpt lat="28.045827811583877" lon="-15.48241694457829">
        <ele>367.8972472512158</ele>
        <time>2021-11-20T08:00:49.941Z</time>
      </trkpt>
      <trkpt lat="28.045868631452322" lon="-15.482453322038054">
        <ele>368.14895389632744</ele>
        <time>2021-11-20T08:00:50.808Z</time>
      </trkpt>
      <trkpt lat="28.04584465920925" lon="-15.48248291015625">
        <ele>368.3790614366425</ele>
        <time>2021-11-20T08:00:51.678Z</time>
      </trkpt>
      <trkpt lat="28.045849772170186" lon="-15.48253177665174">
        <ele>368.62486073641054</ele>
        <time>2021-11-20T08:00:52.551Z</time>
      </trkpt>
      <trkpt lat="28.045835690572858" lon="-15.482548289000988">
        <ele>368.83588965487667</ele>
        <time>2021-11-20T08:00:53.426Z</time>
      </trkpt>
      <trkpt lat="28.045804845169187" lon="-15.482556754723191">
        <ele>369.0381349822105</ele>
        <time>2021-11-20T08:00:54.303Z</time>
      </trkpt>
      <trkpt lat="28.045796966180205" lon="-15.482518197968602">
        <ele>369.213302192798</ele>
        <time>2021-11-20T08:00:55.183Z</time>
      </trkpt>
      <trkpt lat="28.04573913104832" lon="-15.48250637948513">
        <ele>369.4020762344236</ele>
        <time>2021-11-20T08:00:56.068Z</time>
      </trkpt>
      <trkpt lat="28.045751620084047" lon="-15.482496740296483">
        <ele>369.6191416085318</ele>
        <time>2021-11-20T08:00:56.954Z</time>
      </trkpt>
      <trkpt lat="28.045626813545823" lon="-15.482524232938886">
        <ele>369.887072674293</ele>
        <time>2021-11-20T08:00:57.850Z</time>
      </trkpt>
      <trkpt lat="28.045641146600246" lon="-15.482518449425697">
        <ele>370.121565888418</ele>
        <time>2021-11-20T08:00:58.747Z</time>
      </trkpt>
      <trkpt lat="28.04562999866903" lon="-15.482487687841058">
        <ele>370.37330560258346</ele>
        <time>2021-11-20T08:00:59.647Z</time>
      </trkpt>
      <trkpt lat="28.045523213222623" lon="-15.48257083632052">
        <ele>370.7200483331055</ele>
        <time>2021-11-20T08:01:00.557Z</time>
      </trkpt>
      <trkpt lat="28.04549127817154" lon="-15.482624983415008">
        <ele>371.03032747490147</ele>
        <time>2021-11-20T08:01:01.472Z</time>
      </trkpt>
      <trkpt lat="28.04543411359191" lon="-15.482636634260416">
        <ele>371.3523639342754</ele>
        <time>2021-11-20T08:01:02.391Z</time>
      </trkpt>
      <trkpt lat="28.045345349237323" lon="-15.482719028368592">
        <ele>371.69534930949425</ele>
        <time>2021-11-20T08:01:03.320Z</time>
      </trkpt>
      <trkpt lat="28.04535213857889" lon="-15.482693463563919">
        <ele>371.9913009948576</ele>
        <time>2021-11-20T08:01:04.250Z</time>
      </trkpt>
      <trkpt lat="28.045313749462366" lon="-15.482714753597975">
        <ele>372.3163663160386</ele>
        <time>2021-11-20T08:01:05.184Z</time>
      </trkpt>
      <trkpt lat="28.045294554904103" lon="-15.482730679214">
        <ele>372.6395658928991</ele>
        <time>2021-11-20T08:01:06.120Z</time>
      </trkpt>
      <trkpt lat="28.04529103450477" lon="-15.482780719175935">
        <ele>372.9765932543827</ele>
        <time>2021-11-20T08:01:07.059Z</time>
      </trkpt>
      <trkpt lat="28.04523177444935" lon="-15.482831094413996">
        <ele>373.3621668925383</ele>
        <time>2021-11-20T08:01:08.004Z</time>
      </trkpt>
      <trkpt lat="28.045253064483404" lon="-15.482826819643378">
        <ele>373.66976630152215</ele>
        <time>2021-11-20T08:01:08.951Z</time>
      </trkpt>
      <trkpt lat="28.045231271535158" lon="-15.482853474095464">
        <ele>374.0172392388379</ele>
        <time>2021-11-20T08:01:09.901Z</time>
      </trkpt>
      <trkpt lat="28.045153571292758" lon="-15.482916422188282">
        <ele>374.4111745349159</ele>
        <time>2021-11-20T08:01:10.858Z</time>
      </trkpt>
      <trkpt lat="28.045130521059036" lon="-15.482918350026011">
        <ele>374.70975062521313</ele>
        <time>2021-11-20T08:01:11.817Z</time>
      </trkpt>
      <trkpt lat="28.045023065060377" lon="-15.48302672803402">
        <ele>375.0852297194696</ele>
        <time>2021-11-20T08:01:12.788Z</time>
      </trkpt>
      <trkpt lat="28.044949555769563" lon="-15.483071319758892">
        <ele>375.3873171381484</ele>
        <time>2021-11-20T08:01:13.765Z</time>
      </trkpt>
      <trkpt lat="28.0449131783098" lon="-15.483126724138856">
        <ele>375.6891721849194</ele>
        <time>2021-11-20T08:01:14.747Z</time>
      </trkpt>
      <trkpt lat="28.04486833512783" lon="-15.483151534572244">
        <ele>375.95139970807827</ele>
        <time>2021-11-20T08:01:15.733Z</time>
      </trkpt>
      <trkpt lat="28.044832795858383" lon="-15.483255721628666">
        <ele>376.25222695657686</ele>
        <time>2021-11-20T08:01:16.727Z</time>
      </trkpt>
      <trkpt lat="28.04479499347508" lon="-15.483276005834341">
        <ele>376.47983720762</ele>
        <time>2021-11-20T08:01:17.724Z</time>
      </trkpt>
      <trkpt lat="28.044788874685764" lon="-15.483298134058714">
        <ele>376.73045157519823</ele>
        <time>2021-11-20T08:01:18.723Z</time>
      </trkpt>
      <trkpt lat="28.04469290189445" lon="-15.48333995975554">
        <ele>376.923571859956</ele>
        <time>2021-11-20T08:01:19.730Z</time>
      </trkpt>
      <trkpt lat="28.04464554414153" lon="-15.483385473489761">
        <ele>377.1479166160941</ele>
        <time>2021-11-20T08:01:20.742Z</time>
      </trkpt>
      <trkpt lat="28.044653506949544" lon="-15.483406176790595">
        <ele>377.42307593254696</ele>
        <time>2021-11-20T08:01:21.756Z</time>
      </trkpt>
      <trkpt lat="28.04462894797325" lon="-15.483402153477073">
        <ele>377.6865062237985</ele>
        <time>2021-11-20T08:01:22.772Z</time>
      </trkpt>
      <trkpt lat="28.044575303792953" lon="-15.483466777950525">
        <ele>378.00075698689704</ele>
        <time>2021-11-20T08:01:23.794Z</time>
      </trkpt>
      <trkpt lat="28.04453205317259" lon="-15.483544813469052">
        <ele>378.38858851467467</ele>
        <time>2021-11-20T08:01:24.822Z</time>
      </trkpt>
      <trkpt lat="28.044491317123175" lon="-15.483557721599936">
        <ele>378.7857529198212</ele>
        <time>2021-11-20T08:01:25.854Z</time>
      </trkpt>
      <trkpt lat="28.044443875551224" lon="-15.48363659530878">
        <ele>379.23270249087227</ele>
        <time>2021-11-20T08:01:26.893Z</time>
      </trkpt>
      <trkpt lat="28.04445737041533" lon="-15.483669117093086">
        <ele>379.64730176570964</ele>
        <time>2021-11-20T08:01:27.934Z</time>
      </trkpt>
      <trkpt lat="28.04443054832518" lon="-15.483768694102764">
        <ele>380.13495628451653</ele>
        <time>2021-11-20T08:01:28.982Z</time>
      </trkpt>
      <trkpt lat="28.044374976307154" lon="-15.483843963593245">
        <ele>380.67298073490707</ele>
        <time>2021-11-20T08:01:30.037Z</time>
      </trkpt>
      <trkpt lat="28.044380340725183" lon="-15.48390431329608">
        <ele>381.1998879672605</ele>
        <time>2021-11-20T08:01:31.097Z</time>
      </trkpt>
      <trkpt lat="28.04443188942969" lon="-15.483931554481387">
        <ele>381.69969604434914</ele>
        <time>2021-11-20T08:01:32.161Z</time>
      </trkpt>
      <trkpt lat="28.04444664157927" lon="-15.48399810679257">
        <ele>382.21780669621813</ele>
        <time>2021-11-20T08:01:33.230Z</time>
      </trkpt>
      <trkpt lat="28.04439391940832" lon="-15.48406122252345">
        <ele>382.73852578983576</ele>
        <time>2021-11-20T08:01:34.305Z</time>
      </trkpt>
      <trkpt lat="28.04442753084004" lon="-15.484031299129128">
        <ele>383.23364519510034</ele>
        <time>2021-11-20T08:01:35.384Z</time>
      </trkpt>
      <trkpt lat="28.04440028965473" lon="-15.484177144244313">
        <ele>383.7701460942251</ele>
        <time>2021-11-20T08:01:36.473Z</time>
      </trkpt>
      <trkpt lat="28.04442459717393" lon="-15.484282169491053">
        <ele>384.3044842896512</ele>
        <time>2021-11-20T08:01:37.570Z</time>
      </trkpt>
      <trkpt lat="28.044402888044715" lon="-15.484377723187208">
        <ele>384.8395382246129</ele>
        <time>2021-11-20T08:01:38.674Z</time>
      </trkpt>
      <trkpt lat="28.04440171457827" lon="-15.484470929950476">
        <ele>385.4056421243714</ele>
        <time>2021-11-20T08:01:39.784Z</time>
      </trkpt>
      <trkpt lat="28.044429291039705" lon="-15.484488951042295">
        <ele>385.84014145158733</ele>
        <time>2021-11-20T08:01:40.897Z</time>
      </trkpt>
      <trkpt lat="28.044444546103477" lon="-15.484528262168169">
        <ele>386.22916514656475</ele>
        <time>2021-11-20T08:01:42.013Z</time>
      </trkpt>
      <trkpt lat="28.044445384293795" lon="-15.484645022079349">
        <ele>386.6488850421763</ele>
        <time>2021-11-20T08:01:43.137Z</time>
      </trkpt>
      <trkpt lat="28.04441143758595" lon="-15.484657930210233">
        <ele>386.81530640338497</ele>
        <time>2021-11-20T08:01:44.264Z</time>
      </trkpt>
      <trkpt lat="28.04439241066575" lon="-15.484645860269666">
        <ele>386.90680300887595</ele>
        <time>2021-11-20T08:01:45.393Z</time>
      </trkpt>
      <trkpt lat="28.0443225055933" lon="-15.484725991263986">
        <ele>386.9809715330068</ele>
        <time>2021-11-20T08:01:46.530Z</time>
      </trkpt>
      <trkpt lat="28.044313620775938" lon="-15.484781311824918">
        <ele>387.0255441139507</ele>
        <time>2021-11-20T08:01:47.671Z</time>
      </trkpt>
      <trkpt lat="28.044235333800316" lon="-15.484815929085016">
        <ele>386.92494379777094</ele>
        <time>2021-11-20T08:01:48.819Z</time>
      </trkpt>
      <trkpt lat="28.044143551960588" lon="-15.484830597415566">
        <ele>386.774441145427</ele>
        <time>2021-11-20T08:01:49.974Z</time>
      </trkpt>
      <trkpt lat="28.044092087075114" lon="-15.484863119199872">
        <ele>386.6466574528463</ele>
        <time>2021-11-20T08:01:51.134Z</time>
      </trkpt>
      <trkpt lat="28.044071719050407" lon="-15.484840320423245">
        <ele>386.51972698061957</ele>
        <time>2021-11-20T08:01:52.296Z</time>
      </trkpt>
      <trkpt lat="28.044024193659425" lon="-15.48487275838852">
        <ele>386.39587434085865</ele>
        <time>2021-11-20T08:01:53.462Z</time>
      </trkpt>
      <trkpt lat="28.04396241903305" lon="-15.484869237989187">
        <ele>386.31913891759245</ele>
        <time>2021-11-20T08:01:54.633Z</time>
      </trkpt>
      <trkpt lat="28.04385881870985" lon="-15.484938807785511">
        <ele>386.2888597425677</ele>
        <time>2021-11-20T08:01:55.814Z</time>
      </trkpt>
      <trkpt lat="28.043813640251756" lon="-15.484995301812887">
        <ele>386.23598746996083</ele>
        <time>2021-11-20T08:01:57.000Z</time>
      </trkpt>
      <trkpt lat="28.043818334117532" lon="-15.48503058962524">
        <ele>386.14962529596977</ele>
        <time>2021-11-20T08:01:58.189Z</time>
      </trkpt>
      <trkpt lat="28.043757565319538" lon="-15.485086413100362">
        <ele>386.1083791482811</ele>
        <time>2021-11-20T08:01:59.384Z</time>
      </trkpt>
      <trkpt lat="28.043727474287152" lon="-15.485154641792178">
        <ele>386.054437023471</ele>
        <time>2021-11-20T08:02:00.585Z</time>
      </trkpt>
      <trkpt lat="28.043735520914197" lon="-15.485179871320724">
        <ele>386.05244456305843</ele>
        <time>2021-11-20T08:02:01.787Z</time>
      </trkpt>
      <trkpt lat="28.043680619448423" lon="-15.485238041728735">
        <ele>386.06190777614734</ele>
        <time>2021-11-20T08:02:02.995Z</time>
      </trkpt>
      <trkpt lat="28.04366963915527" lon="-15.485277185216546">
        <ele>386.1289487017972</ele>
        <time>2021-11-20T08:02:04.206Z</time>
      </trkpt>
      <trkpt lat="28.043648852035403" lon="-15.485279867425561">
        <ele>386.2465838326514</ele>
        <time>2021-11-20T08:02:05.419Z</time>
      </trkpt>
      <trkpt lat="28.043659077957273" lon="-15.485272658988833">
        <ele>386.41849038273153</ele>
        <time>2021-11-20T08:02:06.633Z</time>
      </trkpt>
      <trkpt lat="28.043541982769966" lon="-15.485517159104347">
        <ele>386.60408610638535</ele>
        <time>2021-11-20T08:02:07.867Z</time>
      </trkpt>
      <trkpt lat="28.043557154014707" lon="-15.4855402931571">
        <ele>386.8704107294784</ele>
        <time>2021-11-20T08:02:09.103Z</time>
      </trkpt>
      <trkpt lat="28.04348590783775" lon="-15.485596535727382">
        <ele>387.18179023174343</ele>
        <time>2021-11-20T08:02:10.346Z</time>
      </trkpt>
      <trkpt lat="28.043466042727232" lon="-15.485661746934056">
        <ele>387.570337732726</ele>
        <time>2021-11-20T08:02:11.594Z</time>
      </trkpt>
      <trkpt lat="28.043382642790675" lon="-15.485737854614854">
        <ele>388.03059945783014</ele>
        <time>2021-11-20T08:02:12.850Z</time>
      </trkpt>
      <trkpt lat="28.043335704132915" lon="-15.485808597877622">
        <ele>388.4922709770982</ele>
        <time>2021-11-20T08:02:14.112Z</time>
      </trkpt>
      <trkpt lat="28.04320503026247" lon="-15.485847489908338">
        <ele>388.98827148984867</ele>
        <time>2021-11-20T08:02:15.385Z</time>
      </trkpt>
      <trkpt lat="28.04315079934895" lon="-15.485892333090305">
        <ele>389.4425204690773</ele>
        <time>2021-11-20T08:02:16.663Z</time>
      </trkpt>
      <trkpt lat="28.043090952560306" lon="-15.485895853489637">
        <ele>389.9173490562913</ele>
        <time>2021-11-20T08:02:17.946Z</time>
      </trkpt>
      <trkpt lat="28.042951729148626" lon="-15.485976487398148">
        <ele>390.4395729769808</ele>
        <time>2021-11-20T08:02:19.242Z</time>
      </trkpt>
      <trkpt lat="28.04289179854095" lon="-15.485969362780452">
        <ele>390.83619790925724</ele>
        <time>2021-11-20T08:02:20.543Z</time>
      </trkpt>
      <trkpt lat="28.042856929823756" lon="-15.48600247129798">
        <ele>391.1432552249581</ele>
        <time>2021-11-20T08:02:21.847Z</time>
      </trkpt>
      <trkpt lat="28.0428702570498" lon="-15.486015044152737">
        <ele>391.405344408636</ele>
        <time>2021-11-20T08:02:23.153Z</time>
      </trkpt>
      <trkpt lat="28.042744612321258" lon="-15.486062234267592">
        <ele>391.6400158968984</ele>
        <time>2021-11-20T08:02:24.469Z</time>
      </trkpt>
      <trkpt lat="28.04265283048153" lon="-15.486136581748724">
        <ele>391.813751538008</ele>
        <time>2021-11-20T08:02:25.794Z</time>
      </trkpt>
      <trkpt lat="28.042625756934285" lon="-15.486220149323344">
        <ele>391.92279536937895</ele>
        <time>2021-11-20T08:02:27.125Z</time>
      </trkpt>
      <trkpt lat="28.04256255738437" lon="-15.486275888979435">
        <ele>391.9874809367473</ele>
        <time>2021-11-20T08:02:28.463Z</time>
      </trkpt>
      <trkpt lat="28.042566161602736" lon="-15.48630254343152">
        <ele>392.04003264339224</ele>
        <time>2021-11-20T08:02:29.803Z</time>
      </trkpt>
      <trkpt lat="28.042536741122603" lon="-15.486315283924341">
        <ele>392.05586543647166</ele>
        <time>2021-11-20T08:02:31.145Z</time>
      </trkpt>
      <trkpt lat="28.042540093883872" lon="-15.486291479319334">
        <ele>392.063011433631</ele>
        <time>2021-11-20T08:02:32.489Z</time>
      </trkpt>
      <trkpt lat="28.0425195582211" lon="-15.48630639910698">
        <ele>392.0332262140842</ele>
        <time>2021-11-20T08:02:33.835Z</time>
      </trkpt>
      <trkpt lat="28.042541770264506" lon="-15.486307656392455">
        <ele>392.0030042039819</ele>
        <time>2021-11-20T08:02:35.183Z</time>
      </trkpt>
      <trkpt lat="28.04251997731626" lon="-15.486321737989783">
        <ele>391.9493754548499</ele>
        <time>2021-11-20T08:02:36.533Z</time>
      </trkpt>
      <trkpt lat="28.042510924860835" lon="-15.486301621422172">
        <ele>391.9051839767277</ele>
        <time>2021-11-20T08:02:37.884Z</time>
      </trkpt>
      <trkpt lat="28.042531544342637" lon="-15.486312350258231">
        <ele>391.8641697015804</ele>
        <time>2021-11-20T08:02:39.237Z</time>
      </trkpt>
      <trkpt lat="28.042536405846477" lon="-15.486327102407813">
        <ele>391.827467305276</ele>
        <time>2021-11-20T08:02:40.591Z</time>
      </trkpt>
      <trkpt lat="28.042518636211753" lon="-15.486317882314324">
        <ele>391.8062805848722</ele>
        <time>2021-11-20T08:02:41.947Z</time>
      </trkpt>
      <trkpt lat="28.042529532685876" lon="-15.486328024417162">
        <ele>391.8081301478352</ele>
        <time>2021-11-20T08:02:43.304Z</time>
      </trkpt>
      <trkpt lat="28.042537411674857" lon="-15.486305309459567">
        <ele>391.8432735539418</ele>
        <time>2021-11-20T08:02:44.663Z</time>
      </trkpt>
      <trkpt lat="28.042529532685876" lon="-15.486348392441869">
        <ele>391.8876050222786</ele>
        <time>2021-11-20T08:02:46.025Z</time>
      </trkpt>
      <trkpt lat="28.042545039206743" lon="-15.48635140992701">
        <ele>391.98239553081993</ele>
        <time>2021-11-20T08:02:47.388Z</time>
      </trkpt>
      <trkpt lat="28.04238125681877" lon="-15.486428523436189">
        <ele>392.08312498878144</ele>
        <time>2021-11-20T08:02:48.765Z</time>
      </trkpt>
      <trkpt lat="28.042339934036136" lon="-15.48650186508894">
        <ele>392.30458002915736</ele>
        <time>2021-11-20T08:02:50.148Z</time>
      </trkpt>
      <trkpt lat="28.042300371453166" lon="-15.486528016626835">
        <ele>392.54762826335747</ele>
        <time>2021-11-20T08:02:51.535Z</time>
      </trkpt>
      <trkpt lat="28.042169278487563" lon="-15.486569255590439">
        <ele>392.8946459152223</ele>
        <time>2021-11-20T08:02:52.933Z</time>
      </trkpt>
      <trkpt lat="28.042110353708267" lon="-15.48655416816473">
        <ele>393.24063903165757</ele>
        <time>2021-11-20T08:02:54.336Z</time>
      </trkpt>
      <trkpt lat="28.042061990126967" lon="-15.48656539991498">
        <ele>393.58526551508777</ele>
        <time>2021-11-20T08:02:55.743Z</time>
      </trkpt>
      <trkpt lat="28.042034078389406" lon="-15.486553916707635">
        <ele>393.94682978253184</ele>
        <time>2021-11-20T08:02:57.152Z</time>
      </trkpt>
      <trkpt lat="28.041945984587073" lon="-15.486565064638853">
        <ele>394.3574411468683</ele>
        <time>2021-11-20T08:02:58.568Z</time>
      </trkpt>
      <trkpt lat="28.041853364557028" lon="-15.48655609600246">
        <ele>394.838593702068</ele>
        <time>2021-11-20T08:02:59.991Z</time>
      </trkpt>
      <trkpt lat="28.04178890772164" lon="-15.486598340794444">
        <ele>395.3054847392476</ele>
        <time>2021-11-20T08:03:01.420Z</time>
      </trkpt>
      <trkpt lat="28.04170164165097" lon="-15.486557672300155">
        <ele>395.8344996203608</ele>
        <time>2021-11-20T08:03:02.857Z</time>
      </trkpt>
      <trkpt lat="28.041701316833496" lon="-15.486557520925999">
        <ele>396.9041692679483</ele>
        <time>2021-11-20T08:03:04.294Z</time>
      </trkpt>
      <trkpt lat="28.04170005954802" lon="-15.486534219235182">
        <ele>397.50177055746065</ele>
        <time>2021-11-20T08:03:05.733Z</time>
      </trkpt>
      <trkpt lat="28.04162386804819" lon="-15.48652240075171">
        <ele>398.146760280295</ele>
        <time>2021-11-20T08:03:07.178Z</time>
      </trkpt>
      <trkpt lat="28.04156033322215" lon="-15.486535057425499">
        <ele>398.80918170314055</ele>
        <time>2021-11-20T08:03:08.628Z</time>
      </trkpt>
      <trkpt lat="28.041414488106966" lon="-15.486640501767397">
        <ele>399.50877471043265</ele>
        <time>2021-11-20T08:03:10.092Z</time>
      </trkpt>
      <trkpt lat="28.041403759270906" lon="-15.486687272787094">
        <ele>400.2221231751329</ele>
        <time>2021-11-20T08:03:11.559Z</time>
      </trkpt>
      <trkpt lat="28.04133553057909" lon="-15.486761704087257">
        <ele>401.013943998036</ele>
        <time>2021-11-20T08:03:13.034Z</time>
      </trkpt>
      <trkpt lat="28.041258081793785" lon="-15.486957170069218">
        <ele>401.8725340451032</ele>
        <time>2021-11-20T08:03:14.524Z</time>
      </trkpt>
      <trkpt lat="28.041269900277257" lon="-15.487080132588744">
        <ele>402.7590867488823</ele>
        <time>2021-11-20T08:03:16.023Z</time>
      </trkpt>
      <trkpt lat="28.041285993531346" lon="-15.487097147852182">
        <ele>403.53643836407923</ele>
        <time>2021-11-20T08:03:17.523Z</time>
      </trkpt>
      <trkpt lat="28.04123980924487" lon="-15.487195132300258">
        <ele>404.40005681365795</ele>
        <time>2021-11-20T08:03:19.031Z</time>
      </trkpt>
      <trkpt lat="28.041258417069912" lon="-15.487324381247163">
        <ele>405.2345904528636</ele>
        <time>2021-11-20T08:03:20.549Z</time>
      </trkpt>
      <trkpt lat="28.041230253875256" lon="-15.4874019138515">
        <ele>405.97623313259385</ele>
        <time>2021-11-20T08:03:22.072Z</time>
      </trkpt>
      <trkpt lat="28.041238049045205" lon="-15.487447930499911">
        <ele>406.6659023818305</ele>
        <time>2021-11-20T08:03:23.599Z</time>
      </trkpt>
      <trkpt lat="28.041220363229513" lon="-15.487537030130625">
        <ele>407.29300418257094</ele>
        <time>2021-11-20T08:03:25.132Z</time>
      </trkpt>
      <trkpt lat="28.041241820901632" lon="-15.487649599090219">
        <ele>407.92368525515576</ele>
        <time>2021-11-20T08:03:26.673Z</time>
      </trkpt>
      <trkpt lat="28.0412763543427" lon="-15.487700393423438">
        <ele>408.46476442371966</ele>
        <time>2021-11-20T08:03:28.219Z</time>
      </trkpt>
      <trkpt lat="28.041257578879595" lon="-15.487733585759997">
        <ele>408.82626125066156</ele>
        <time>2021-11-20T08:03:29.768Z</time>
      </trkpt>
      <trkpt lat="28.041269648820162" lon="-15.487817572429776">
        <ele>409.19590674383517</ele>
        <time>2021-11-20T08:03:31.323Z</time>
      </trkpt>
      <trkpt lat="28.041223464533687" lon="-15.487889656797051">
        <ele>409.3927437772793</ele>
        <time>2021-11-20T08:03:32.884Z</time>
      </trkpt>
      <trkpt lat="28.04119530133903" lon="-15.487912371754646">
        <ele>409.5243158973001</ele>
        <time>2021-11-20T08:03:34.448Z</time>
      </trkpt>
      <trkpt lat="28.041154565289617" lon="-15.487900553271174">
        <ele>409.56359723454784</ele>
        <time>2021-11-20T08:03:36.015Z</time>
      </trkpt>
      <trkpt lat="28.04112740792334" lon="-15.4879164788872">
        <ele>409.58712806283995</ele>
        <time>2021-11-20T08:03:37.585Z</time>
      </trkpt>
      <trkpt lat="28.041048031300306" lon="-15.488006500527263">
        <ele>409.5462965954419</ele>
        <time>2021-11-20T08:03:39.164Z</time>
      </trkpt>
      <trkpt lat="28.04100620560348" lon="-15.487962244078517">
        <ele>409.46248276528337</ele>
        <time>2021-11-20T08:03:40.747Z</time>
      </trkpt>
      <trkpt lat="28.040992710739374" lon="-15.487990826368332">
        <ele>409.44327253492816</ele>
        <time>2021-11-20T08:03:42.332Z</time>
      </trkpt>
      <trkpt lat="28.041000505909324" lon="-15.487982695922256">
        <ele>409.4345676327372</ele>
        <time>2021-11-20T08:03:43.918Z</time>
      </trkpt>
      <trkpt lat="28.040944011881948" lon="-15.48799023963511">
        <ele>409.414120556855</ele>
        <time>2021-11-20T08:03:45.509Z</time>
      </trkpt>
      <trkpt lat="28.040892546996474" lon="-15.488021923229098">
        <ele>409.44827723192185</ele>
        <time>2021-11-20T08:03:47.105Z</time>
      </trkpt>
      <trkpt lat="28.04079942405224" lon="-15.488047739490867">
        <ele>409.5067288783539</ele>
        <time>2021-11-20T08:03:48.708Z</time>
      </trkpt>
      <trkpt lat="28.040784504264593" lon="-15.488032400608063">
        <ele>409.57660124914133</ele>
        <time>2021-11-20T08:03:50.313Z</time>
      </trkpt>
      <trkpt lat="28.040710743516684" lon="-15.48807724379003">
        <ele>409.71371928365215</ele>
        <time>2021-11-20T08:03:51.924Z</time>
      </trkpt>
      <trkpt lat="28.040643939748406" lon="-15.488192327320576">
        <ele>409.9246535470143</ele>
        <time>2021-11-20T08:03:53.545Z</time>
      </trkpt>
      <trkpt lat="28.040635474026203" lon="-15.488238176330924">
        <ele>410.13709854237607</ele>
        <time>2021-11-20T08:03:55.170Z</time>
      </trkpt>
      <trkpt lat="28.040568167343736" lon="-15.488296514376998">
        <ele>410.39144933449563</ele>
        <time>2021-11-20T08:03:56.801Z</time>
      </trkpt>
      <trkpt lat="28.04048770107329" lon="-15.488440599292517">
        <ele>410.7222961232113</ele>
        <time>2021-11-20T08:03:58.444Z</time>
      </trkpt>
      <trkpt lat="28.040420478209853" lon="-15.488510755822062">
        <ele>411.0469333427607</ele>
        <time>2021-11-20T08:04:00.095Z</time>
      </trkpt>
      <trkpt lat="28.040398098528385" lon="-15.488572781905532">
        <ele>411.39837930181716</ele>
        <time>2021-11-20T08:04:01.750Z</time>
      </trkpt>
      <trkpt lat="28.040369600057602" lon="-15.488604046404362">
        <ele>411.7557130725412</ele>
        <time>2021-11-20T08:04:03.409Z</time>
      </trkpt>
      <trkpt lat="28.04037203080952" lon="-15.488646375015378">
        <ele>412.09724992739945</ele>
        <time>2021-11-20T08:04:05.071Z</time>
      </trkpt>
      <trkpt lat="28.04035526700318" lon="-15.488680824637413">
        <ele>412.45717171141735</ele>
        <time>2021-11-20T08:04:06.735Z</time>
      </trkpt>
      <trkpt lat="28.04037538357079" lon="-15.48870462924242">
        <ele>412.84927512001855</ele>
        <time>2021-11-20T08:04:08.402Z</time>
      </trkpt>
      <trkpt lat="28.04039290174842" lon="-15.488815773278475">
        <ele>413.33083130307875</ele>
        <time>2021-11-20T08:04:10.077Z</time>
      </trkpt>
      <trkpt lat="28.04036356508732" lon="-15.48885852098465">
        <ele>413.7131429651752</ele>
        <time>2021-11-20T08:04:11.756Z</time>
      </trkpt>
      <trkpt lat="28.040284607559443" lon="-15.488888779655099">
        <ele>414.0482153850878</ele>
        <time>2021-11-20T08:04:13.441Z</time>
      </trkpt>
      <trkpt lat="28.040281170979142" lon="-15.488904034718871">
        <ele>414.39377889346156</ele>
        <time>2021-11-20T08:04:15.127Z</time>
      </trkpt>
      <trkpt lat="28.040314447134733" lon="-15.48891082406044">
        <ele>414.74072985568137</ele>
        <time>2021-11-20T08:04:16.816Z</time>
      </trkpt>
      <trkpt lat="28.040323331952095" lon="-15.48893328756094">
        <ele>415.0755297413002</ele>
        <time>2021-11-20T08:04:18.507Z</time>
      </trkpt>
      <trkpt lat="28.04030304774642" lon="-15.489031104370952">
        <ele>415.4465798514434</ele>
        <time>2021-11-20T08:04:20.205Z</time>
      </trkpt>
      <trkpt lat="28.040156364440918" lon="-15.48911995254457">
        <ele>415.72316490395804</ele>
        <time>2021-11-20T08:04:21.916Z</time>
      </trkpt>
      <trkpt lat="28.040051087737083" lon="-15.489131854847074">
        <ele>415.9576167784678</ele>
        <time>2021-11-20T08:04:23.636Z</time>
      </trkpt>
      <trkpt lat="28.03995905444026" lon="-15.489181894809008">
        <ele>416.22270996935197</ele>
        <time>2021-11-20T08:04:25.364Z</time>
      </trkpt>
      <trkpt lat="28.03986861370504" lon="-15.489198826253414">
        <ele>416.4617881982866</ele>
        <time>2021-11-20T08:04:27.099Z</time>
      </trkpt>
      <trkpt lat="28.03983449935913" lon="-15.489234952256083">
        <ele>416.7534795156656</ele>
        <time>2021-11-20T08:04:28.838Z</time>
      </trkpt>
      <trkpt lat="28.039751518517733" lon="-15.48927191644907">
        <ele>417.04857243903837</ele>
        <time>2021-11-20T08:04:30.584Z</time>
      </trkpt>
      <trkpt lat="28.039653282612562" lon="-15.489382725208998">
        <ele>417.37424598366374</ele>
        <time>2021-11-20T08:04:32.341Z</time>
      </trkpt>
      <trkpt lat="28.039576839655638" lon="-15.489425556734204">
        <ele>417.6938235415257</ele>
        <time>2021-11-20T08:04:34.105Z</time>
      </trkpt>
      <trkpt lat="28.03946695290506" lon="-15.48945028334856">
        <ele>418.00041691738755</ele>
        <time>2021-11-20T08:04:35.878Z</time>
      </trkpt>
      <trkpt lat="28.039411464706063" lon="-15.489550279453397">
        <ele>418.2979123545126</ele>
        <time>2021-11-20T08:04:37.659Z</time>
      </trkpt>
      <trkpt lat="28.03933896124363" lon="-15.489585483446717">
        <ele>418.59944024655647</ele>
        <time>2021-11-20T08:04:39.446Z</time>
      </trkpt>
      <trkpt lat="28.039302667602897" lon="-15.489628734067082">
        <ele>418.89324180030667</ele>
        <time>2021-11-20T08:04:41.238Z</time>
      </trkpt>
      <trkpt lat="28.039244078099728" lon="-15.489643486216664">
        <ele>419.2002936144338</ele>
        <time>2021-11-20T08:04:43.034Z</time>
      </trkpt>
      <trkpt lat="28.0391988158226" lon="-15.48968045040965">
        <ele>419.4936606270853</ele>
        <time>2021-11-20T08:04:44.835Z</time>
      </trkpt>
      <trkpt lat="28.038971414789557" lon="-15.489754630252719">
        <ele>419.86211255774674</ele>
        <time>2021-11-20T08:04:46.655Z</time>
      </trkpt>
      <trkpt lat="28.03889086470008" lon="-15.489805843681097">
        <ele>420.14003830693434</ele>
        <time>2021-11-20T08:04:48.482Z</time>
      </trkpt>
      <trkpt lat="28.038847278803587" lon="-15.489812716841698">
        <ele>420.3792995915725</ele>
        <time>2021-11-20T08:04:50.313Z</time>
      </trkpt>
      <trkpt lat="28.03876589052379" lon="-15.489890165627003">
        <ele>420.62716215032117</ele>
        <time>2021-11-20T08:04:52.152Z</time>
      </trkpt>
      <trkpt lat="28.03873554803431" lon="-15.48987340182066">
        <ele>420.8170475683057</ele>
        <time>2021-11-20T08:04:53.994Z</time>
      </trkpt>
      <trkpt lat="28.038718616589904" lon="-15.489881616085768">
        <ele>420.99020892666056</ele>
        <time>2021-11-20T08:04:55.837Z</time>
      </trkpt>
      <trkpt lat="28.03869104012847" lon="-15.489848088473082">
        <ele>421.1371397413354</ele>
        <time>2021-11-20T08:04:57.684Z</time>
      </trkpt>
      <trkpt lat="28.038664469495416" lon="-15.489859906956553">
        <ele>421.2797183043195</ele>
        <time>2021-11-20T08:04:59.533Z</time>
      </trkpt>
      <trkpt lat="28.038694141432643" lon="-15.489832079038024">
        <ele>421.38481262639493</ele>
        <time>2021-11-20T08:05:01.385Z</time>
      </trkpt>
      <trkpt lat="28.038635132834315" lon="-15.489844735711813">
        <ele>421.5146774970914</ele>
        <time>2021-11-20T08:05:03.242Z</time>
      </trkpt>
      <trkpt lat="28.03864653222263" lon="-15.489874994382262">
        <ele>421.62533491432987</ele>
        <time>2021-11-20T08:05:05.101Z</time>
      </trkpt>
      <trkpt lat="28.038614094257355" lon="-15.489923190325499">
        <ele>421.75119397799983</ele>
        <time>2021-11-20T08:05:06.964Z</time>
      </trkpt>
      <trkpt lat="28.038524072617292" lon="-15.489995526149869">
        <ele>421.9010657722413</ele>
        <time>2021-11-20T08:05:08.836Z</time>
      </trkpt>
      <trkpt lat="28.03851175121963" lon="-15.490039279684424">
        <ele>422.0197294689393</ele>
        <time>2021-11-20T08:05:10.711Z</time>
      </trkpt>
      <trkpt lat="28.038433883339167" lon="-15.490134665742517">
        <ele>422.1679228921313</ele>
        <time>2021-11-20T08:05:12.596Z</time>
      </trkpt>
      <trkpt lat="28.038304718211293" lon="-15.490200212225318">
        <ele>422.3475232286271</ele>
        <time>2021-11-20T08:05:14.492Z</time>
      </trkpt>
      <trkpt lat="28.038274543359876" lon="-15.49023650586605">
        <ele>422.52535124993506</ele>
        <time>2021-11-20T08:05:16.391Z</time>
      </trkpt>
      <trkpt lat="28.038282673805952" lon="-15.490227956324816">
        <ele>422.72439082773997</ele>
        <time>2021-11-20T08:05:18.291Z</time>
      </trkpt>
      <trkpt lat="28.03816876374185" lon="-15.490305321291089">
        <ele>423.0194338389549</ele>
        <time>2021-11-20T08:05:20.202Z</time>
      </trkpt>
      <trkpt lat="28.038109838962555" lon="-15.490322168916464">
        <ele>423.3509388360396</ele>
        <time>2021-11-20T08:05:22.118Z</time>
      </trkpt>
      <trkpt lat="28.037987798452377" lon="-15.490396516397595">
        <ele>423.79416972133595</ele>
        <time>2021-11-20T08:05:24.045Z</time>
      </trkpt>
      <trkpt lat="28.037888472899795" lon="-15.490506989881396">
        <ele>424.2705492501308</ele>
        <time>2021-11-20T08:05:25.983Z</time>
      </trkpt>
      <trkpt lat="28.03781060501933" lon="-15.490532806143165">
        <ele>424.7573239220249</ele>
        <time>2021-11-20T08:05:27.927Z</time>
      </trkpt>
      <trkpt lat="28.037856370210648" lon="-15.490551916882396">
        <ele>425.2491825079111</ele>
        <time>2021-11-20T08:05:29.875Z</time>
      </trkpt>
      <trkpt lat="28.03795368410647" lon="-15.490554347634315">
        <ele>425.7968435516418</ele>
        <time>2021-11-20T08:05:31.831Z</time>
      </trkpt>
      <trkpt lat="28.038140684366226" lon="-15.490595502778888">
        <ele>426.4304701101024</ele>
        <time>2021-11-20T08:05:33.802Z</time>
      </trkpt>
      <trkpt lat="28.038308070972562" lon="-15.490573290735483">
        <ele>427.1424985090834</ele>
        <time>2021-11-20T08:05:35.787Z</time>
      </trkpt>
      <trkpt lat="28.038446959108114" lon="-15.49057463183999">
        <ele>428.0197665706344</ele>
        <time>2021-11-20T08:05:37.783Z</time>
      </trkpt>
      <trkpt lat="28.03864946588874" lon="-15.490597933530807">
        <ele>429.11797674322526</ele>
        <time>2021-11-20T08:05:39.795Z</time>
      </trkpt>
      <trkpt lat="28.038694309070706" lon="-15.49062056466937">
        <ele>430.3660538750638</ele>
        <time>2021-11-20T08:05:41.811Z</time>
      </trkpt>
      <trkpt lat="28.038723226636648" lon="-15.490680411458015">
        <ele>431.82819767532715</ele>
        <time>2021-11-20T08:05:43.832Z</time>
      </trkpt>
      <trkpt lat="28.038687519729137" lon="-15.490849139168859">
        <ele>433.5315685714398</ele>
        <time>2021-11-20T08:05:45.865Z</time>
      </trkpt>
      <trkpt lat="28.03867444396019" lon="-15.491033624857664">
        <ele>435.3671176935931</ele>
        <time>2021-11-20T08:05:47.911Z</time>
      </trkpt>
      <trkpt lat="28.038708390668035" lon="-15.49113412387669">
        <ele>437.1606279356203</ele>
        <time>2021-11-20T08:05:49.965Z</time>
      </trkpt>
      <trkpt lat="28.038702942430973" lon="-15.491247195750475">
        <ele>438.95316752080237</ele>
        <time>2021-11-20T08:05:52.027Z</time>
      </trkpt>
      <trkpt lat="28.038750467821956" lon="-15.491413827985525">
        <ele>440.92704133451855</ele>
        <time>2021-11-20T08:05:54.101Z</time>
      </trkpt>
      <trkpt lat="28.03883814252913" lon="-15.491503262892365">
        <ele>442.76348518765354</ele>
        <time>2021-11-20T08:05:56.185Z</time>
      </trkpt>
      <trkpt lat="28.038829006254673" lon="-15.491583058610559">
        <ele>444.3478813484116</ele>
        <time>2021-11-20T08:05:58.274Z</time>
      </trkpt>
      <trkpt lat="28.038762286305428" lon="-15.491660675033927">
        <ele>445.74720649967696</ele>
        <time>2021-11-20T08:06:00.371Z</time>
      </trkpt>
      <trkpt lat="28.038631193339825" lon="-15.491754468530416">
        <ele>446.95817492266525</ele>
        <time>2021-11-20T08:06:02.480Z</time>
      </trkpt>
      <trkpt lat="28.038382418453693" lon="-15.491848597303033">
        <ele>448.00201354990736</ele>
        <time>2021-11-20T08:06:04.610Z</time>
      </trkpt>
      <trkpt lat="28.038399014621973" lon="-15.491807274520397">
        <ele>449.04830882095894</ele>
        <time>2021-11-20T08:06:06.743Z</time>
      </trkpt>
      <trkpt lat="28.03835676982999" lon="-15.49183334223926">
        <ele>450.08604571849696</ele>
        <time>2021-11-20T08:06:08.880Z</time>
      </trkpt>
      <trkpt lat="28.038234058767557" lon="-15.491943564265966">
        <ele>451.12173995163585</ele>
        <time>2021-11-20T08:06:11.030Z</time>
      </trkpt>
      <trkpt lat="28.038143953308463" lon="-15.492074070498347">
        <ele>452.05260290922</ele>
        <time>2021-11-20T08:06:13.192Z</time>
      </trkpt>
      <trkpt lat="28.037970950827003" lon="-15.492176916450262">
        <ele>452.83650269860834</ele>
        <time>2021-11-20T08:06:15.369Z</time>
      </trkpt>
      <trkpt lat="28.037953935563564" lon="-15.492204492911696">
        <ele>453.4831877974681</ele>
        <time>2021-11-20T08:06:17.549Z</time>
      </trkpt>
      <trkpt lat="28.037976482883096" lon="-15.492211868986487">
        <ele>454.02611054606086</ele>
        <time>2021-11-20T08:06:19.730Z</time>
      </trkpt>
      <trkpt lat="28.03794831968844" lon="-15.492243552580476">
        <ele>454.48036255656655</ele>
        <time>2021-11-20T08:06:21.915Z</time>
      </trkpt>
      <trkpt lat="28.037825608626008" lon="-15.492323348298669">
        <ele>454.8717076594497</ele>
        <time>2021-11-20T08:06:24.111Z</time>
      </trkpt>
      <trkpt lat="28.037690240889788" lon="-15.492453016340733">
        <ele>455.207869834132</ele>
        <time>2021-11-20T08:06:26.321Z</time>
      </trkpt>
      <trkpt lat="28.037438113242388" lon="-15.49261855892837">
        <ele>455.53411230096447</ele>
        <time>2021-11-20T08:06:28.554Z</time>
      </trkpt>
      <trkpt lat="28.037423780187964" lon="-15.492612775415182">
        <ele>455.60370423551547</ele>
        <time>2021-11-20T08:06:30.789Z</time>
      </trkpt>
      <trkpt lat="28.03740701638162" lon="-15.49265225417912">
        <ele>455.6489841209059</ele>
        <time>2021-11-20T08:06:33.027Z</time>
      </trkpt>
      <trkpt lat="28.037327555939555" lon="-15.492703886702657">
        <ele>455.6251029077542</ele>
        <time>2021-11-20T08:06:35.272Z</time>
      </trkpt>
      <trkpt lat="28.03729218430817" lon="-15.492709586396813">
        <ele>455.49712392344486</ele>
        <time>2021-11-20T08:06:37.520Z</time>
      </trkpt>
      <trkpt lat="28.037239965051413" lon="-15.492656026035547">
        <ele>455.270870899868</ele>
        <time>2021-11-20T08:06:39.773Z</time>
      </trkpt>
      <trkpt lat="28.03720417432487" lon="-15.492650242522359">
        <ele>455.09770307314153</ele>
        <time>2021-11-20T08:06:42.029Z</time>
      </trkpt>
      <trkpt lat="28.03711323067546" lon="-15.492594251409173">
        <ele>454.8419247367077</ele>
        <time>2021-11-20T08:06:44.294Z</time>
      </trkpt>
      <trkpt lat="28.037019185721874" lon="-15.492512360215187">
        <ele>454.61747637242485</ele>
        <time>2021-11-20T08:06:46.568Z</time>
      </trkpt>
      <trkpt lat="28.03700082935393" lon="-15.492555946111679">
        <ele>454.69506842243527</ele>
        <time>2021-11-20T08:06:48.846Z</time>
      </trkpt>
      <trkpt lat="28.037038799375296" lon="-15.492548905313015">
        <ele>454.8269715712501</ele>
        <time>2021-11-20T08:06:51.127Z</time>
      </trkpt>
      <trkpt lat="28.03705614991486" lon="-15.492506995797157">
        <ele>455.0092476431855</ele>
        <time>2021-11-20T08:06:53.411Z</time>
      </trkpt>
      <trkpt lat="28.03702002391219" lon="-15.492548821493983">
        <ele>455.37164226089703</ele>
        <time>2021-11-20T08:06:55.699Z</time>
      </trkpt>
      <trkpt lat="28.037281623110175" lon="-15.492725260555744">
        <ele>456.1532600101356</ele>
        <time>2021-11-20T08:06:58.011Z</time>
      </trkpt>
      <trkpt lat="28.03736099973321" lon="-15.49274118617177">
        <ele>456.6164495623967</ele>
        <time>2021-11-20T08:07:00.330Z</time>
      </trkpt>
      <trkpt lat="28.037511790171266" lon="-15.492873787879944">
        <ele>457.1280744755953</ele>
        <time>2021-11-20T08:07:02.664Z</time>
      </trkpt>
      <trkpt lat="28.03759661503136" lon="-15.492916787043214">
        <ele>457.71594694049367</ele>
        <time>2021-11-20T08:07:05.005Z</time>
      </trkpt>
      <trkpt lat="28.037630645558238" lon="-15.492962887510657">
        <ele>458.440320018037</ele>
        <time>2021-11-20T08:07:07.351Z</time>
      </trkpt>
      <trkpt lat="28.037683116272092" lon="-15.492996834218502">
        <ele>459.2431634890719</ele>
        <time>2021-11-20T08:07:09.702Z</time>
      </trkpt>
      <trkpt lat="28.037883108481765" lon="-15.49325667321682">
        <ele>460.3917741288078</ele>
        <time>2021-11-20T08:07:12.077Z</time>
      </trkpt>
      <trkpt lat="28.03809441626072" lon="-15.49338223412633">
        <ele>461.24352630105136</ele>
        <time>2021-11-20T08:07:14.471Z</time>
      </trkpt>
      <trkpt lat="28.03817404434085" lon="-15.49340134486556">
        <ele>461.90806349552514</ele>
        <time>2021-11-20T08:07:16.871Z</time>
      </trkpt>
      <trkpt lat="28.03826306015253" lon="-15.493451720103621">
        <ele>462.5993178394932</ele>
        <time>2021-11-20T08:07:19.279Z</time>
      </trkpt>
      <trkpt lat="28.038503117859364" lon="-15.49344677478075">
        <ele>463.2580283367765</ele>
        <time>2021-11-20T08:07:21.707Z</time>
      </trkpt>
      <trkpt lat="28.038641586899757" lon="-15.493473932147026">
        <ele>463.9897292627786</ele>
        <time>2021-11-20T08:07:24.146Z</time>
      </trkpt>
      <trkpt lat="28.03879088050866" lon="-15.493529896491737">
        <ele>464.8750648590551</ele>
        <time>2021-11-20T08:07:26.597Z</time>
      </trkpt>
      <trkpt lat="28.038790000000002" lon="-15.493500000000001">
        <ele>466.41792333474797</ele>
        <time>2021-11-20T08:07:29.050Z</time>
      </trkpt>
      <trkpt lat="28.038880000000002" lon="-15.493480000000002">
        <ele>467.29852051894744</ele>
        <time>2021-11-20T08:07:31.511Z</time>
      </trkpt>
      <trkpt lat="28.038990000000002" lon="-15.493430000000002">
        <ele>468.1532023979089</ele>
        <time>2021-11-20T08:07:33.981Z</time>
      </trkpt>
      <trkpt lat="28.03918" lon="-15.493350000000001">
        <ele>469.1295756073298</ele>
        <time>2021-11-20T08:07:36.467Z</time>
      </trkpt>
      <trkpt lat="28.03937" lon="-15.493340000000002">
        <ele>469.85289488110845</ele>
        <time>2021-11-20T08:07:38.969Z</time>
      </trkpt>
      <trkpt lat="28.039420000000003" lon="-15.493360000000001">
        <ele>469.90364739643235</ele>
        <time>2021-11-20T08:07:41.475Z</time>
      </trkpt>
      <trkpt lat="28.039730000000002" lon="-15.493490000000001">
        <ele>468.92898441019275</ele>
        <time>2021-11-20T08:07:44.007Z</time>
      </trkpt>
      <trkpt lat="28.04024" lon="-15.493750000000002">
        <ele>467.272405344666</ele>
        <time>2021-11-20T08:07:46.584Z</time>
      </trkpt>
      <trkpt lat="28.04043" lon="-15.49383">
        <ele>466.68466227434</ele>
        <time>2021-11-20T08:07:49.177Z</time>
      </trkpt>
      <trkpt lat="28.040490000000002" lon="-15.493800000000002">
        <ele>466.1901072759613</ele>
        <time>2021-11-20T08:07:51.775Z</time>
      </trkpt>
      <trkpt lat="28.040540000000004" lon="-15.493750000000002">
        <ele>465.6839525941248</ele>
        <time>2021-11-20T08:07:54.379Z</time>
      </trkpt>
    </trkseg>
  </trk>
</gpx>
